Boeuf, Argentina
Current Conditions -  °F | °C
As of 5:00 PM on Saturday 20 Dec 2014 (Local Time) from SAOC Reporting Station
Scattered Clouds Scattered Clouds  
Wind Chill: 72°   Ceiling: Unl
Heat Index: 72°   Visibility: 6mi
Dew Point: 45°   Wind: 24mph
Humidity: 38%   Direction: 110°ESE
Pressure: 29.65"   Gusts: NA
Location:  35.94°S, 64.37°W
Report Text: SAOC 202000Z 11021KT 9999 FEW020 SCT03022/07 Q1004
Loading
Personal Weather Stations






























Interactive Weather Map New forecast layout! Learn more

10-Day Weather Forecast

Advertisements
Track Severe Weather on mobile